sensor_id;sensor_type;location;lat;lon;timestamp;pressure;altitude;pressure_sealevel;temperature;humidity
16664;BME280;8445;51.270;9.434;2023-04-12T00:01:20;98885.69;;;5.36;49.36
16664;BME280;8445;51.270;9.434;2023-04-12T00:03:45;98890.06;;;5.35;49.33
16664;BME280;8445;51.270;9.434;2023-04-12T00:06:15;98882.31;;;5.33;49.52
16664;BME280;8445;51.270;9.434;2023-04-12T00:08:42;98870.97;;;5.33;49.57
16664;BME280;8445;51.270;9.434;2023-04-12T00:11:11;98872.84;;;5.31;49.85
16664;BME280;8445;51.270;9.434;2023-04-12T00:13:41;98870.03;;;5.34;49.68
16664;BME280;8445;51.270;9.434;2023-04-12T00:16:08;98861.13;;;5.37;49.91
16664;BME280;8445;51.270;9.434;2023-04-12T00:18:36;98854.84;;;5.39;50.11
16664;BME280;8445;51.270;9.434;2023-04-12T00:21:02;98852.97;;;5.41;50.32
16664;BME280;8445;51.270;9.434;2023-04-12T00:23:29;98844.16;;;5.42;49.57
16664;BME280;8445;51.270;9.434;2023-04-12T00:25:55;98837.22;;;5.41;50.19
16664;BME280;8445;51.270;9.434;2023-04-12T00:28:20;98842.28;;;5.44;49.98
16664;BME280;8445;51.270;9.434;2023-04-12T00:30:49;98828.41;;;5.42;49.90
16664;BME280;8445;51.270;9.434;2023-04-12T00:33:15;98819.63;;;5.43;50.52
16664;BME280;8445;51.270;9.434;2023-04-12T00:35:40;98814.56;;;5.40;50.13
16664;BME280;8445;51.270;9.434;2023-04-12T00:38:08;98811.19;;;5.38;50.16
16664;BME280;8445;51.270;9.434;2023-04-12T00:40:40;98799.94;;;5.36;50.52
16664;BME280;8445;51.270;9.434;2023-04-12T00:43:06;98804.47;;;5.34;50.17
16664;BME280;8445;51.270;9.434;2023-04-12T00:45:35;98803.72;;;5.32;51.22
16664;BME280;8445;51.270;9.434;2023-04-12T00:48:04;98793.22;;;5.32;50.80
16664;BME280;8445;51.270;9.434;2023-04-12T00:50:29;98787.03;;;5.33;50.70
16664;BME280;8445;51.270;9.434;2023-04-12T00:52:56;98771.31;;;5.33;50.92
16664;BME280;8445;51.270;9.434;2023-04-12T00:55:23;98775.59;;;5.34;50.96
16664;BME280;8445;51.270;9.434;2023-04-12T00:57:49;98764.91;;;5.37;50.44
16664;BME280;8445;51.270;9.434;2023-04-12T01:00:16;98762.28;;;5.37;50.27
16664;BME280;8445;51.270;9.434;2023-04-12T01:02:45;98760.72;;;5.34;50.47
16664;BME280;8445;51.270;9.434;2023-04-12T01:05:11;98754.75;;;5.32;50.60
16664;BME280;8445;51.270;9.434;2023-04-12T01:10:32;98745.00;;;5.34;51.01
16664;BME280;8445;51.270;9.434;2023-04-12T01:13:28;98731.03;;;5.34;53.20
16664;BME280;8445;51.270;9.434;2023-04-12T01:16:08;98739.31;;;5.28;50.54
16664;BME280;8445;51.270;9.434;2023-04-12T01:18:40;98743.81;;;5.26;50.81
16664;BME280;8445;51.270;9.434;2023-04-12T01:21:17;98746.63;;;5.23;50.92
16664;BME280;8445;51.270;9.434;2023-04-12T01:23:50;98738.03;;;5.21;51.12
16664;BME280;8445;51.270;9.434;2023-04-12T01:26:43;98721.78;;;5.28;52.34
16664;BME280;8445;51.270;9.434;2023-04-12T01:29:17;98718.09;;;5.31;51.28
16664;BME280;8445;51.270;9.434;2023-04-12T01:31:53;98713.59;;;5.33;51.19
16664;BME280;8445;51.270;9.434;2023-04-12T01:34:22;98702.91;;;5.36;51.30
16664;BME280;8445;51.270;9.434;2023-04-12T01:36:49;98705.25;;;5.41;51.21
16664;BME280;8445;51.270;9.434;2023-04-12T01:39:18;98699.81;;;5.44;51.05
16664;BME280;8445;51.270;9.434;2023-04-12T01:41:46;98691.09;;;5.43;51.06
16664;BME280;8445;51.270;9.434;2023-04-12T01:44:17;98683.00;;;5.46;51.23
16664;BME280;8445;51.270;9.434;2023-04-12T01:46:44;98679.34;;;5.49;50.94
16664;BME280;8445;51.270;9.434;2023-04-12T01:49:12;98679.25;;;5.51;50.98
16664;BME280;8445;51.270;9.434;2023-04-12T01:54:13;98680.63;;;5.56;51.01
16664;BME280;8445;51.270;9.434;2023-04-12T01:56:46;98677.91;;;5.58;51.32
16664;BME280;8445;51.270;9.434;2023-04-12T01:59:14;98680.31;;;5.61;50.71
16664;BME280;8445;51.270;9.434;2023-04-12T02:01:42;98668.56;;;5.67;50.97
16664;BME280;8445;51.270;9.434;2023-04-12T02:04:08;98653.25;;;5.73;50.87
16664;BME280;8445;51.270;9.434;2023-04-12T02:06:35;98646.53;;;5.82;50.88
16664;BME280;8445;51.270;9.434;2023-04-12T02:09:03;98645.28;;;5.88;50.76
16664;BME280;8445;51.270;9.434;2023-04-12T02:11:33;98645.78;;;5.93;51.36
16664;BME280;8445;51.270;9.434;2023-04-12T02:13:59;98639.38;;;5.97;50.62
16664;BME280;8445;51.270;9.434;2023-04-12T02:16:26;98636.38;;;6.03;50.85
16664;BME280;8445;51.270;9.434;2023-04-12T02:18:53;98636.91;;;6.08;50.45
16664;BME280;8445;51.270;9.434;2023-04-12T02:21:21;98628.81;;;6.12;50.93
16664;BME280;8445;51.270;9.434;2023-04-12T02:23:47;98623.88;;;6.20;50.33
16664;BME280;8445;51.270;9.434;2023-04-12T02:26:12;98626.28;;;6.23;50.76
16664;BME280;8445;51.270;9.434;2023-04-12T02:28:38;98627.63;;;6.29;50.46
16664;BME280;8445;51.270;9.434;2023-04-12T02:31:08;98624.69;;;6.33;50.68
16664;BME280;8445;51.270;9.434;2023-04-12T02:33:34;98620.78;;;6.39;50.69
16664;BME280;8445;51.270;9.434;2023-04-12T02:36:01;98615.22;;;6.44;50.73
16664;BME280;8445;51.270;9.434;2023-04-12T02:38:27;98603.75;;;6.45;50.75
16664;BME280;8445;51.270;9.434;2023-04-12T02:40:54;98605.91;;;6.51;50.84
16664;BME280;8445;51.270;9.434;2023-04-12T02:43:22;98606.53;;;6.55;50.61
16664;BME280;8445;51.270;9.434;2023-04-12T02:45:56;98609.06;;;6.56;51.31
16664;BME280;8445;51.270;9.434;2023-04-12T02:48:24;98595.59;;;6.61;51.03
16664;BME280;8445;51.270;9.434;2023-04-12T02:50:50;98593.56;;;6.64;50.83
16664;BME280;8445;51.270;9.434;2023-04-12T02:53:19;98592.41;;;6.68;50.94
16664;BME280;8445;51.270;9.434;2023-04-12T02:55:53;98588.59;;;6.73;50.65
16664;BME280;8445;51.270;9.434;2023-04-12T02:58:22;98589.22;;;6.76;50.88
16664;BME280;8445;51.270;9.434;2023-04-12T03:00:52;98588.16;;;6.79;50.67
16664;BME280;8445;51.270;9.434;2023-04-12T03:03:25;98581.59;;;6.85;50.54
16664;BME280;8445;51.270;9.434;2023-04-12T03:06:04;98573.63;;;6.86;51.09
16664;BME280;8445;51.270;9.434;2023-04-12T03:08:32;98578.88;;;6.86;50.71
16664;BME280;8445;51.270;9.434;2023-04-12T03:10:58;98578.88;;;6.86;50.70
16664;BME280;8445;51.270;9.434;2023-04-12T03:13:24;98577.78;;;6.89;50.93
16664;BME280;8445;51.270;9.434;2023-04-12T03:15:57;98568.84;;;6.91;50.99
16664;BME280;8445;51.270;9.434;2023-04-12T03:18:30;98561.94;;;6.90;50.81
16664;BME280;8445;51.270;9.434;2023-04-12T03:20:56;98564.56;;;6.90;51.08
16664;BME280;8445;51.270;9.434;2023-04-12T03:23:21;98562.88;;;6.89;51.34
16664;BME280;8445;51.270;9.434;2023-04-12T03:25:55;98568.13;;;6.89;51.47
16664;BME280;8445;51.270;9.434;2023-04-12T03:28:31;98562.03;;;6.89;51.41
16664;BME280;8445;51.270;9.434;2023-04-12T03:30:58;98566.47;;;6.88;51.08
16664;BME280;8445;51.270;9.434;2023-04-12T03:33:33;98564.78;;;6.87;51.32
16664;BME280;8445;51.270;9.434;2023-04-12T03:36:01;98576.97;;;6.88;51.65
16664;BME280;8445;51.270;9.434;2023-04-12T03:38:29;98563.81;;;6.88;51.54
16664;BME280;8445;51.270;9.434;2023-04-12T03:40:55;98555.94;;;6.88;51.92
16664;BME280;8445;51.270;9.434;2023-04-12T03:43:27;98555.94;;;6.88;51.54
16664;BME280;8445;51.270;9.434;2023-04-12T03:45:58;98543.25;;;6.82;51.86
16664;BME280;8445;51.270;9.434;2023-04-12T03:48:26;98550.41;;;6.80;52.05
16664;BME280;8445;51.270;9.434;2023-04-12T03:50:52;98540.34;;;6.74;52.07
16664;BME280;8445;51.270;9.434;2023-04-12T03:53:21;98532.91;;;6.67;52.45
16664;BME280;8445;51.270;9.434;2023-04-12T03:55:47;98533.13;;;6.64;52.58
16664;BME280;8445;51.270;9.434;2023-04-12T03:58:13;98526.41;;;6.60;52.49
16664;BME280;8445;51.270;9.434;2023-04-12T04:00:45;98536.19;;;6.58;52.55
16664;BME280;8445;51.270;9.434;2023-04-12T04:03:17;98531.91;;;6.57;52.53
16664;BME280;8445;51.270;9.434;2023-04-12T04:05:57;98520.56;;;6.57;53.16
16664;BME280;8445;51.270;9.434;2023-04-12T04:08:23;98518.03;;;6.55;52.72
16664;BME280;8445;51.270;9.434;2023-04-12T04:10:50;98529.41;;;6.56;52.51
16664;BME280;8445;51.270;9.434;2023-04-12T04:13:16;98521.59;;;6.54;52.97
16664;BME280;8445;51.270;9.434;2023-04-12T04:15:42;98512.78;;;6.55;53.48
16664;BME280;8445;51.270;9.434;2023-04-12T04:18:10;98494.59;;;6.52;53.32
16664;BME280;8445;51.270;9.434;2023-04-12T04:20:36;98486.13;;;6.48;53.82
16664;BME280;8445;51.270;9.434;2023-04-12T04:23:02;98484.44;;;6.47;53.83
16664;BME280;8445;51.270;9.434;2023-04-12T04:25:27;98478.38;;;6.47;53.78
16664;BME280;8445;51.270;9.434;2023-04-12T04:28:00;98472.50;;;6.43;53.56
16664;BME280;8445;51.270;9.434;2023-04-12T04:30:30;98470.00;;;6.42;53.94
16664;BME280;8445;51.270;9.434;2023-04-12T04:32:58;98462.84;;;6.44;54.02
16664;BME280;8445;51.270;9.434;2023-04-12T04:35:25;98468.56;;;6.49;53.55
16664;BME280;8445;51.270;9.434;2023-04-12T04:38:16;98460.69;;;6.49;54.05
16664;BME280;8445;51.270;9.434;2023-04-12T04:40:43;98457.34;;;6.47;54.27
16664;BME280;8445;51.270;9.434;2023-04-12T04:43:09;98448.75;;;6.45;54.56
16664;BME280;8445;51.270;9.434;2023-04-12T04:45:40;98436.78;;;6.41;54.49
16664;BME280;8445;51.270;9.434;2023-04-12T04:48:07;98439.06;;;6.45;54.31
16664;BME280;8445;51.270;9.434;2023-04-12T04:50:32;98437.50;;;6.43;54.14
16664;BME280;8445;51.270;9.434;2023-04-12T04:53:02;98432.13;;;6.44;54.25
16664;BME280;8445;51.270;9.434;2023-04-12T04:55:30;98437.16;;;6.47;54.72
16664;BME280;8445;51.270;9.434;2023-04-12T04:57:55;98441.09;;;6.53;54.84
16664;BME280;8445;51.270;9.434;2023-04-12T05:00:22;98419.63;;;6.59;54.87
16664;BME280;8445;51.270;9.434;2023-04-12T05:02:53;98426.09;;;6.66;54.79
16664;BME280;8445;51.270;9.434;2023-04-12T05:05:25;98430.06;;;6.72;54.50
16664;BME280;8445;51.270;9.434;2023-04-12T05:07:57;98422.56;;;6.79;54.87
16664;BME280;8445;51.270;9.434;2023-04-12T05:10:23;98405.38;;;6.86;55.00
16664;BME280;8445;51.270;9.434;2023-04-12T05:12:50;98399.88;;;6.89;54.78
16664;BME280;8445;51.270;9.434;2023-04-12T05:15:18;98398.44;;;6.96;54.93
16664;BME280;8445;51.270;9.434;2023-04-12T05:17:45;98387.47;;;7.03;55.30
16664;BME280;8445;51.270;9.434;2023-04-12T05:20:10;98388.53;;;7.11;55.00
16664;BME280;8445;51.270;9.434;2023-04-12T05:22:43;98379.22;;;7.19;54.79
16664;BME280;8445;51.270;9.434;2023-04-12T05:25:09;98372.53;;;7.26;55.05
16664;BME280;8445;51.270;9.434;2023-04-12T05:27:43;98370.81;;;7.36;55.80
16664;BME280;8445;51.270;9.434;2023-04-12T05:30:12;98378.94;;;7.45;55.67
16664;BME280;8445;51.270;9.434;2023-04-12T05:32:38;98372.13;;;7.53;56.32
16664;BME280;8445;51.270;9.434;2023-04-12T05:35:07;98365.28;;;7.62;55.75
16664;BME280;8445;51.270;9.434;2023-04-12T05:37:34;98364.91;;;7.67;55.84
16664;BME280;8445;51.270;9.434;2023-04-12T05:39:59;98348.88;;;7.70;55.82
16664;BME280;8445;51.270;9.434;2023-04-12T05:42:25;98348.03;;;7.69;56.33
16664;BME280;8445;51.270;9.434;2023-04-12T05:45:00;98341.56;;;7.74;56.74
16664;BME280;8445;51.270;9.434;2023-04-12T05:47:26;98343.09;;;7.76;55.75
16664;BME280;8445;51.270;9.434;2023-04-12T05:49:54;98333.53;;;7.75;56.02
16664;BME280;8445;51.270;9.434;2023-04-12T05:52:20;98326.84;;;7.71;56.07
16664;BME280;8445;51.270;9.434;2023-04-12T05:54:46;98321.56;;;7.71;55.90
16664;BME280;8445;51.270;9.434;2023-04-12T05:57:15;98316.31;;;7.71;55.87
16664;BME280;8445;51.270;9.434;2023-04-12T05:59:41;98319.66;;;7.73;56.00
16664;BME280;8445;51.270;9.434;2023-04-12T06:02:07;98314.38;;;7.73;56.05
16664;BME280;8445;51.270;9.434;2023-04-12T06:04:34;98305.53;;;7.74;56.24
16664;BME280;8445;51.270;9.434;2023-04-12T06:06:59;98308.88;;;7.76;56.06
16664;BME280;8445;51.270;9.434;2023-04-12T06:09:28;98297.28;;;7.79;56.54
16664;BME280;8445;51.270;9.434;2023-04-12T06:11:53;98293.03;;;7.88;56.37
16664;BME280;8445;51.270;9.434;2023-04-12T06:14:19;98288.81;;;7.96;56.30
16664;BME280;8445;51.270;9.434;2023-04-12T06:16:45;98283.88;;;8.03;56.48
16664;BME280;8445;51.270;9.434;2023-04-12T06:19:12;98273.53;;;8.11;56.53
16664;BME280;8445;51.270;9.434;2023-04-12T06:21:37;98265.13;;;8.18;56.94
16664;BME280;8445;51.270;9.434;2023-04-12T06:24:05;98266.25;;;8.25;56.70
16664;BME280;8445;51.270;9.434;2023-04-12T06:26:32;98256.63;;;8.35;56.88
16664;BME280;8445;51.270;9.434;2023-04-12T06:28:58;98249.38;;;8.49;56.98
16664;BME280;8445;51.270;9.434;2023-04-12T06:31:24;98237.63;;;8.63;56.76
16664;BME280;8445;51.270;9.434;2023-04-12T06:33:50;98232.84;;;8.78;56.59
16664;BME280;8445;51.270;9.434;2023-04-12T06:36:18;98232.19;;;8.95;57.34
16664;BME280;8445;51.270;9.434;2023-04-12T06:38:43;98233.91;;;9.16;57.64
16664;BME280;8445;51.270;9.434;2023-04-12T06:41:09;98215.06;;;9.30;57.94
16664;BME280;8445;51.270;9.434;2023-04-12T06:43:34;98218.66;;;9.49;57.55
16664;BME280;8445;51.270;9.434;2023-04-12T06:46:02;98223.13;;;9.68;57.15
16664;BME280;8445;51.270;9.434;2023-04-12T06:48:28;98219.63;;;9.87;57.25
16664;BME280;8445;51.270;9.434;2023-04-12T06:50:54;98208.59;;;10.02;57.51
16664;BME280;8445;51.270;9.434;2023-04-12T06:53:21;98212.19;;;10.20;57.36
16664;BME280;8445;51.270;9.434;2023-04-12T06:55:49;98204.78;;;10.34;57.90
16664;BME280;8445;51.270;9.434;2023-04-12T06:58:16;98209.06;;;10.55;57.58
16664;BME280;8445;51.270;9.434;2023-04-12T07:00:42;98196.03;;;10.71;57.46
16664;BME280;8445;51.270;9.434;2023-04-12T07:03:08;98190.53;;;10.82;57.14
16664;BME280;8445;51.270;9.434;2023-04-12T07:05:40;98177.19;;;10.84;56.95
16664;BME280;8445;51.270;9.434;2023-04-12T07:08:07;98173.88;;;10.72;57.24
16664;BME280;8445;51.270;9.434;2023-04-12T07:10:35;98161.13;;;10.67;57.30
16664;BME280;8445;51.270;9.434;2023-04-12T07:13:01;98168.06;;;10.68;57.39
16664;BME280;8445;51.270;9.434;2023-04-12T07:15:33;98170.03;;;10.66;57.54
16664;BME280;8445;51.270;9.434;2023-04-12T07:17:58;98167.53;;;10.65;57.47
16664;BME280;8445;51.270;9.434;2023-04-12T07:20:24;98162.00;;;10.58;57.55
16664;BME280;8445;51.270;9.434;2023-04-12T07:22:50;98163.03;;;10.47;57.52
16664;BME280;8445;51.270;9.434;2023-04-12T07:25:15;98160.53;;;10.36;57.67
16664;BME280;8445;51.270;9.434;2023-04-12T07:27:41;98156.53;;;10.32;57.80
16664;BME280;8445;51.270;9.434;2023-04-12T07:30:07;98144.56;;;10.28;57.25
16664;BME280;8445;51.270;9.434;2023-04-12T07:32:32;98148.19;;;10.27;57.27
16664;BME280;8445;51.270;9.434;2023-04-12T07:34:58;98144.03;;;10.24;57.08
16664;BME280;8445;51.270;9.434;2023-04-12T07:37:23;98139.56;;;10.24;57.47
16664;BME280;8445;51.270;9.434;2023-04-12T07:39:51;98135.94;;;10.26;57.47
16664;BME280;8445;51.270;9.434;2023-04-12T07:42:17;98131.34;;;10.28;57.61
16664;BME280;8445;51.270;9.434;2023-04-12T07:44:42;98125.38;;;10.26;57.79
16664;BME280;8445;51.270;9.434;2023-04-12T07:47:08;98114.81;;;10.26;57.68
16664;BME280;8445;51.270;9.434;2023-04-12T07:49:33;98118.19;;;10.18;58.05
16664;BME280;8445;51.270;9.434;2023-04-12T07:52:02;98115.16;;;10.13;58.62
16664;BME280;8445;51.270;9.434;2023-04-12T07:54:27;98108.19;;;10.12;57.95
16664;BME280;8445;51.270;9.434;2023-04-12T07:57:01;98109.03;;;10.12;58.05
16664;BME280;8445;51.270;9.434;2023-04-12T07:59:27;98106.25;;;10.04;58.57
16664;BME280;8445;51.270;9.434;2023-04-12T08:01:53;98105.28;;;10.05;58.35
16664;BME280;8445;51.270;9.434;2023-04-12T08:04:19;98094.34;;;10.00;58.74
16664;BME280;8445;51.270;9.434;2023-04-12T08:06:44;98100.97;;;10.04;58.48
16664;BME280;8445;51.270;9.434;2023-04-12T08:09:10;98086.09;;;10.13;59.13
16664;BME280;8445;51.270;9.434;2023-04-12T08:11:35;98089.34;;;10.24;58.86
16664;BME280;8445;51.270;9.434;2023-04-12T08:14:01;98088.91;;;10.39;59.11
16664;BME280;8445;51.270;9.434;2023-04-12T08:16:26;98077.69;;;10.55;58.83
16664;BME280;8445;51.270;9.434;2023-04-12T08:18:52;98075.66;;;10.67;58.94
16664;BME280;8445;51.270;9.434;2023-04-12T08:21:17;98062.50;;;10.75;59.23
16664;BME280;8445;51.270;9.434;2023-04-12T08:23:43;98065.22;;;10.83;58.57
16664;BME280;8445;51.270;9.434;2023-04-12T08:26:08;98060.69;;;10.94;58.35
16664;BME280;8445;51.270;9.434;2023-04-12T08:28:34;98055.63;;;11.01;58.79
16664;BME280;8445;51.270;9.434;2023-04-12T08:31:01;98043.31;;;11.09;59.07
16664;BME280;8445;51.270;9.434;2023-04-12T08:33:27;98036.34;;;11.08;59.40
16664;BME280;8445;51.270;9.434;2023-04-12T08:35:54;98040.34;;;11.12;59.40
16664;BME280;8445;51.270;9.434;2023-04-12T08:38:20;98041.25;;;11.21;59.38
16664;BME280;8445;51.270;9.434;2023-04-12T08:40:46;98034.56;;;11.35;59.16
16664;BME280;8445;51.270;9.434;2023-04-12T08:43:12;98024.56;;;11.29;59.25
16664;BME280;8445;51.270;9.434;2023-04-12T08:45:38;98027.09;;;11.31;59.41
16664;BME280;8445;51.270;9.434;2023-04-12T08:48:06;98021.84;;;11.39;59.53
16664;BME280;8445;51.270;9.434;2023-04-12T08:50:32;98011.72;;;11.34;59.24
16664;BME280;8445;51.270;9.434;2023-04-12T08:53:00;98014.34;;;11.34;59.47
16664;BME280;8445;51.270;9.434;2023-04-12T08:55:26;98005.75;;;11.32;59.54
16664;BME280;8445;51.270;9.434;2023-04-12T08:57:53;98000.75;;;11.29;59.49
16664;BME280;8445;51.270;9.434;2023-04-12T09:00:21;97995.31;;;11.31;59.28
16664;BME280;8445;51.270;9.434;2023-04-12T09:02:46;97990.16;;;11.29;59.08
16664;BME280;8445;51.270;9.434;2023-04-12T09:05:13;97982.16;;;11.21;59.35
16664;BME280;8445;51.270;9.434;2023-04-12T09:07:40;97980.41;;;11.03;59.18
16664;BME280;8445;51.270;9.434;2023-04-12T09:10:05;97972.63;;;11.02;59.21
16664;BME280;8445;51.270;9.434;2023-04-12T09:12:34;97965.97;;;10.97;59.52
16664;BME280;8445;51.270;9.434;2023-04-12T09:15:11;97970.44;;;10.97;59.46
16664;BME280;8445;51.270;9.434;2023-04-12T09:17:38;97954.88;;;10.94;59.19
16664;BME280;8445;51.270;9.434;2023-04-12T09:22:43;97942.63;;;10.93;58.98
16664;BME280;8445;51.270;9.434;2023-04-12T09:25:10;97940.13;;;10.91;58.94
16664;BME280;8445;51.270;9.434;2023-04-12T09:28:16;97936.34;;;10.94;60.23
16664;BME280;8445;51.270;9.434;2023-04-12T09:30:44;97930.06;;;10.95;59.44
16664;BME280;8445;51.270;9.434;2023-04-12T09:33:12;97925.59;;;10.95;59.53
16664;BME280;8445;51.270;9.434;2023-04-12T09:35:37;97928.16;;;11.05;59.62
16664;BME280;8445;51.270;9.434;2023-04-12T09:38:09;97931.38;;;11.17;60.02
16664;BME280;8445;51.270;9.434;2023-04-12T09:40:36;97921.94;;;11.15;59.45
16664;BME280;8445;51.270;9.434;2023-04-12T09:43:02;97918.25;;;11.07;59.98
16664;BME280;8445;51.270;9.434;2023-04-12T09:45:29;97916.06;;;11.03;59.92
16664;BME280;8445;51.270;9.434;2023-04-12T09:47:56;97914.56;;;11.00;60.23
16664;BME280;8445;51.270;9.434;2023-04-12T09:50:27;97911.00;;;11.09;60.04
16664;BME280;8445;51.270;9.434;2023-04-12T09:52:56;97905.75;;;11.18;59.94
16664;BME280;8445;51.270;9.434;2023-04-12T09:55:24;97898.31;;;11.21;59.97
16664;BME280;8445;51.270;9.434;2023-04-12T09:57:51;97891.50;;;11.19;59.71
16664;BME280;8445;51.270;9.434;2023-04-12T10:00:18;97884.59;;;11.18;59.84
16664;BME280;8445;51.270;9.434;2023-04-12T10:02:50;97888.00;;;11.10;60.02
16664;BME280;8445;51.270;9.434;2023-04-12T10:05:18;97885.47;;;11.00;59.98
16664;BME280;8445;51.270;9.434;2023-04-12T10:07:45;97883.75;;;10.91;59.99
16664;BME280;8445;51.270;9.434;2023-04-12T10:10:15;97880.59;;;10.87;60.02
16664;BME280;8445;51.270;9.434;2023-04-12T10:12:45;97871.44;;;10.81;60.37
16664;BME280;8445;51.270;9.434;2023-04-12T10:15:11;97864.50;;;10.80;60.40
16664;BME280;8445;51.270;9.434;2023-04-12T10:17:41;97860.38;;;10.78;60.52
16664;BME280;8445;51.270;9.434;2023-04-12T10:20:11;97862.53;;;10.82;60.66
16664;BME280;8445;51.270;9.434;2023-04-12T10:22:45;97866.91;;;10.92;60.44
16664;BME280;8445;51.270;9.434;2023-04-12T10:25:12;97865.97;;;11.01;60.36
16664;BME280;8445;51.270;9.434;2023-04-12T10:27:42;97858.03;;;11.01;60.63
16664;BME280;8445;51.270;9.434;2023-04-12T10:30:27;97843.44;;;10.97;62.67
16664;BME280;8445;51.270;9.434;2023-04-12T10:35:28;97834.88;;;11.03;60.78
16664;BME280;8445;51.270;9.434;2023-04-12T10:38:01;97837.94;;;11.17;60.48
16664;BME280;8445;51.270;9.434;2023-04-12T10:40:31;97829.00;;;11.26;60.38
16664;BME280;8445;51.270;9.434;2023-04-12T10:45:50;97823.72;;;11.26;60.44
16664;BME280;8445;51.270;9.434;2023-04-12T10:48:34;97826.69;;;11.23;62.39
16664;BME280;8445;51.270;9.434;2023-04-12T10:51:16;97828.66;;;11.21;60.53
16664;BME280;8445;51.270;9.434;2023-04-12T10:53:45;97828.31;;;11.16;60.62
16664;BME280;8445;51.270;9.434;2023-04-12T10:58:59;97830.00;;;11.25;61.17
16664;BME280;8445;51.270;9.434;2023-04-12T11:01:28;97823.56;;;11.27;60.89
16664;BME280;8445;51.270;9.434;2023-04-12T11:04:18;97816.94;;;11.23;61.36
16664;BME280;8445;51.270;9.434;2023-04-12T11:07:09;97814.75;;;11.19;60.73
16664;BME280;8445;51.270;9.434;2023-04-12T11:09:46;97812.78;;;11.21;60.93
16664;BME280;8445;51.270;9.434;2023-04-12T11:12:20;97811.22;;;11.45;61.72
16664;BME280;8445;51.270;9.434;2023-04-12T11:14:50;97803.31;;;11.61;61.26
16664;BME280;8445;51.270;9.434;2023-04-12T11:17:20;97814.41;;;11.65;61.24
16664;BME280;8445;51.270;9.434;2023-04-12T11:22:15;97815.09;;;11.75;61.46
16664;BME280;8445;51.270;9.434;2023-04-12T11:24:46;97806.03;;;12.03;61.96
16664;BME280;8445;51.270;9.434;2023-04-12T11:27:15;97803.22;;;12.29;61.79
16664;BME280;8445;51.270;9.434;2023-04-12T11:29:41;97796.06;;;12.46;61.35
16664;BME280;8445;51.270;9.434;2023-04-12T11:32:12;97794.72;;;12.75;61.25
16664;BME280;8445;51.270;9.434;2023-04-12T11:34:39;97796.47;;;12.99;61.22
16664;BME280;8445;51.270;9.434;2023-04-12T11:37:06;97785.97;;;13.06;60.84
16664;BME280;8445;51.270;9.434;2023-04-12T11:39:33;97784.25;;;13.22;61.11
16664;BME280;8445;51.270;9.434;2023-04-12T11:41:59;97782.69;;;13.35;61.18
16664;BME280;8445;51.270;9.434;2023-04-12T11:44:27;97780.69;;;13.46;60.89
16664;BME280;8445;51.270;9.434;2023-04-12T11:46:53;97771.34;;;13.50;60.76
16664;BME280;8445;51.270;9.434;2023-04-12T11:49:22;97769.13;;;13.62;60.99
16664;BME280;8445;51.270;9.434;2023-04-12T11:52:00;97762.16;;;13.61;60.90
16664;BME280;8445;51.270;9.434;2023-04-12T11:54:27;97765.06;;;13.74;61.52
16664;BME280;8445;51.270;9.434;2023-04-12T11:56:56;97760.63;;;13.90;61.55
16664;BME280;8445;51.270;9.434;2023-04-12T11:59:23;97758.38;;;14.02;61.79
16664;BME280;8445;51.270;9.434;2023-04-12T12:01:54;97753.53;;;14.05;61.35
16664;BME280;8445;51.270;9.434;2023-04-12T12:04:20;97749.78;;;14.15;61.21
16664;BME280;8445;51.270;9.434;2023-04-12T12:06:45;97749.06;;;14.21;60.88
16664;BME280;8445;51.270;9.434;2023-04-12T12:09:12;97749.69;;;14.23;60.71
16664;BME280;8445;51.270;9.434;2023-04-12T12:11:37;97742.19;;;14.12;60.79
16664;BME280;8445;51.270;9.434;2023-04-12T12:14:03;97740.81;;;13.92;60.83
16664;BME280;8445;51.270;9.434;2023-04-12T12:16:29;97748.41;;;13.81;60.97
16664;BME280;8445;51.270;9.434;2023-04-12T12:18:55;97748.00;;;13.69;61.49
16664;BME280;8445;51.270;9.434;2023-04-12T12:21:21;97744.75;;;13.58;61.45
16664;BME280;8445;51.270;9.434;2023-04-12T12:23:47;97743.31;;;13.47;61.75
16664;BME280;8445;51.270;9.434;2023-04-12T12:26:24;97743.69;;;13.44;62.01
16664;BME280;8445;51.270;9.434;2023-04-12T12:28:52;97741.78;;;13.53;61.45
16664;BME280;8445;51.270;9.434;2023-04-12T12:31:20;97746.44;;;13.51;61.07
16664;BME280;8445;51.270;9.434;2023-04-12T12:33:46;97749.00;;;13.44;60.84
16664;BME280;8445;51.270;9.434;2023-04-12T12:36:11;97743.84;;;13.34;61.10
16664;BME280;8445;51.270;9.434;2023-04-12T12:38:39;97745.03;;;13.32;61.07
16664;BME280;8445;51.270;9.434;2023-04-12T12:41:16;97743.38;;;13.31;61.16
16664;BME280;8445;51.270;9.434;2023-04-12T12:43:50;97736.06;;;13.33;61.47
16664;BME280;8445;51.270;9.434;2023-04-12T12:46:17;97734.88;;;13.35;61.56
16664;BME280;8445;51.270;9.434;2023-04-12T12:48:47;97723.44;;;13.43;61.73
16664;BME280;8445;51.270;9.434;2023-04-12T12:51:17;97730.75;;;13.41;61.69
16664;BME280;8445;51.270;9.434;2023-04-12T12:53:47;97728.75;;;13.43;61.66
16664;BME280;8445;51.270;9.434;2023-04-12T12:56:16;97731.06;;;13.46;61.64
16664;BME280;8445;51.270;9.434;2023-04-12T12:58:45;97725.44;;;13.41;61.83
16664;BME280;8445;51.270;9.434;2023-04-12T13:01:12;97720.13;;;13.41;62.10
16664;BME280;8445;51.270;9.434;2023-04-12T13:03:40;97708.50;;;13.42;62.41
16664;BME280;8445;51.270;9.434;2023-04-12T13:06:06;97712.03;;;13.58;62.01
16664;BME280;8445;51.270;9.434;2023-04-12T13:08:32;97716.50;;;13.81;61.80
16664;BME280;8445;51.270;9.434;2023-04-12T13:11:02;97713.06;;;13.95;62.18
16664;BME280;8445;51.270;9.434;2023-04-12T13:13:28;97710.44;;;14.10;61.81
16664;BME280;8445;51.270;9.434;2023-04-12T13:15:53;97699.25;;;14.15;62.10
16664;BME280;8445;51.270;9.434;2023-04-12T13:18:19;97696.06;;;14.19;61.77
16664;BME280;8445;51.270;9.434;2023-04-12T13:20:44;97685.00;;;14.31;62.07
16664;BME280;8445;51.270;9.434;2023-04-12T13:23:10;97681.41;;;14.38;62.32
16664;BME280;8445;51.270;9.434;2023-04-12T13:25:37;97691.41;;;14.66;62.47
16664;BME280;8445;51.270;9.434;2023-04-12T13:28:05;97687.34;;;15.01;62.36
16664;BME280;8445;51.270;9.434;2023-04-12T13:30:30;97682.75;;;15.31;62.00
16664;BME280;8445;51.270;9.434;2023-04-12T13:32:56;97682.44;;;15.63;62.14
16664;BME280;8445;51.270;9.434;2023-04-12T13:35:22;97680.53;;;15.78;61.38
16664;BME280;8445;51.270;9.434;2023-04-12T13:37:51;97679.78;;;15.63;60.98
16664;BME280;8445;51.270;9.434;2023-04-12T13:40:18;97671.84;;;15.48;61.43
16664;BME280;8445;51.270;9.434;2023-04-12T13:42:43;97662.66;;;15.50;61.16